Time;durP1;ratioP1;P1;durP2;ratioP2;P2;SDS_P1;SDS_P2;PMS_P1;PMS_P2;Temp;Humidity;BMP_temperature;BMP_pressure;BME280_temperature;BME280_humidity;BME280_pressure;Samples;Min_cycle;Max_cycle;Signal;HPM_P1;HPM_P2
2023/11/12 00:00:56;;;;;;;2.72;1.13;;;;;;;7.23;100.00;98622.53;6196846;28;20065;-75
2023/11/12 00:03:57;;;;;;;1.00;0.90;;;;;;;7.29;100.00;98628.22;6196078;28;20129;-75
2023/11/12 00:06:58;;;;;;;4.20;1.23;;;;;;;7.26;100.00;98624.06;6197036;28;20055;-75
2023/11/12 00:09:59;;;;;;;0.88;0.80;;;;;;;7.31;100.00;98628.94;6195552;28;20061;-75
2023/11/12 00:13:00;;;;;;;3.15;0.70;;;;;;;7.44;100.00;98627.16;6195556;28;20046;-75
2023/11/12 00:16:00;;;;;;;0.90;0.90;;;;;;;7.24;100.00;98642.34;6196556;28;20420;-75
2023/11/12 00:19:04;;;;;;;1.75;1.30;;;;;;;7.25;100.00;98630.22;6195640;28;20520;-79
2023/11/12 00:22:05;;;;;;;1.20;1.08;;;;;;;7.34;100.00;98641.72;6195316;28;20213;-79
2023/11/12 00:25:13;;;;;;;1.25;1.10;;;;;;;7.30;100.00;98637.66;6195272;28;20066;-75
2023/11/12 00:28:13;;;;;;;2.08;1.27;;;;;;;7.27;100.00;98646.50;6195900;28;20238;-74
2023/11/12 00:31:14;;;;;;;1.05;0.82;;;;;;;7.15;100.00;98650.78;6196142;28;20057;-74
2023/11/12 00:34:15;;;;;;;3.38;1.45;;;;;;;7.30;100.00;98655.84;6195063;28;20519;-75
2023/11/12 00:37:16;;;;;;;1.38;0.75;;;;;;;7.37;100.00;98654.44;6195046;28;20155;-75
2023/11/12 00:40:17;;;;;;;0.88;0.82;;;;;;;7.28;100.00;98676.69;6196350;28;20054;-75
2023/11/12 00:43:20;;;;;;;1.00;0.85;;;;;;;7.15;100.00;98663.75;6194992;28;20057;-74
2023/11/12 00:46:20;;;;;;;;;;;;;;;7.34;100.00;98676.25;6196395;28;20094;-75
2023/11/12 00:49:22;;;;;;;0.95;0.70;;;;;;;7.20;100.00;98676.38;6196049;28;20452;-80
2023/11/12 00:52:23;;;;;;;1.15;1.05;;;;;;;7.29;100.00;98673.16;6194741;28;20083;-80
2023/11/12 00:55:24;;;;;;;2.58;1.45;;;;;;;7.28;100.00;98679.28;6196043;28;20486;-79
2023/11/12 00:58:27;;;;;;;3.55;1.27;;;;;;;7.24;100.00;98678.66;6195122;28;20050;-79
2023/11/12 01:01:31;;;;;;;1.42;1.25;;;;;;;7.27;100.00;98682.81;6194801;28;20474;-80
2023/11/12 01:04:32;;;;;;;2.67;1.60;;;;;;;7.31;100.00;98684.28;6194857;28;20482;-79
2023/11/12 01:07:35;;;;;;;2.30;1.38;;;;;;;7.18;100.00;98683.44;6195893;28;20050;-79
2023/11/12 01:10:37;;;;;;;1.35;1.25;;;;;;;7.27;100.00;98682.81;6195981;28;20192;-79
2023/11/12 01:13:38;;;;;;;1.15;1.05;;;;;;;7.20;100.00;98687.59;6195747;28;20137;-75
2023/11/12 01:16:40;;;;;;;1.48;1.38;;;;;;;7.15;100.00;98687.09;6195717;28;20057;-75
2023/11/12 01:19:41;;;;;;;1.88;1.27;;;;;;;7.01;100.00;98685.44;6194758;28;20085;-80
2023/11/12 01:22:42;;;;;;;1.65;1.48;;;;;;;7.04;100.00;98694.75;6194119;28;20050;-80
2023/11/12 01:25:43;;;;;;;4.43;1.30;;;;;;;7.13;100.00;98706.28;6194696;28;20046;-79
2023/11/12 01:28:46;;;;;;;1.70;1.38;;;;;;;6.91;100.00;98707.72;6194434;28;20283;-75
2023/11/12 01:31:47;;;;;;;1.05;0.95;;;;;;;7.09;100.00;98703.06;6195258;28;20493;-75
2023/11/12 01:34:48;;;;;;;1.85;1.15;;;;;;;7.17;100.00;98695.59;6194124;28;20061;-75
2023/11/12 01:37:49;;;;;;;1.05;0.95;;;;;;;7.10;100.00;98704.72;6195792;28;20425;-75
2023/11/12 01:40:53;;;;;;;1.25;0.95;;;;;;;6.96;100.00;98708.25;6195436;28;20042;-75
2023/11/12 01:43:54;;;;;;;2.20;1.10;;;;;;;6.97;100.00;98716.88;6195162;28;20445;-74
2023/11/12 01:46:55;;;;;;;2.20;1.52;;;;;;;7.07;100.00;98712.72;6194941;28;20065;-74
2023/11/12 01:49:56;;;;;;;3.78;1.48;;;;;;;6.87;100.00;98711.47;6194956;28;20409;-75
2023/11/12 01:52:57;;;;;;;1.90;1.33;;;;;;;7.09;100.00;98730.78;6194927;28;20065;-75
2023/11/12 01:55:59;;;;;;;3.03;1.23;;;;;;;7.11;100.00;98728.91;6194927;28;20519;-75
2023/11/12 01:59:01;;;;;;;3.83;1.65;;;;;;;7.24;100.00;98724.53;6193986;28;20050;-75
2023/11/12 02:02:02;;;;;;;;;;;;;;;6.97;100.00;98735.84;6195344;28;20137;-75
2023/11/12 02:05:08;;;;;;;1.30;1.20;;;;;;;7.11;100.00;98739.28;6198780;28;19922;-80
2023/11/12 02:08:09;;;;;;;3.85;1.77;;;;;;;6.92;100.00;98742.25;6231367;28;20050;-79
2023/11/12 02:11:13;;;;;;;3.55;1.98;;;;;;;7.06;100.00;98743.03;6198398;28;20500;-79
2023/11/12 02:14:16;;;;;;;3.83;1.27;;;;;;;6.77;100.00;98755.31;6199609;28;20058;-75
2023/11/12 02:17:17;;;;;;;1.48;1.35;;;;;;;6.79;100.00;98756.03;6199729;28;20057;-79
2023/11/12 02:20:18;;;;;;;1.88;1.42;;;;;;;6.79;100.00;98750.03;6199656;28;20054;-79
2023/11/12 02:23:19;;;;;;;2.33;1.38;;;;;;;6.96;100.00;98760.13;6199412;28;20054;-79
2023/11/12 02:26:20;;;;;;;2.05;1.50;;;;;;;6.86;100.00;98766.84;6198915;28;20061;-79
2023/11/12 02:29:22;;;;;;;2.20;1.42;;;;;;;6.96;100.00;98770.50;6198226;28;20540;-79
2023/11/12 02:32:32;;;;;;;2.80;1.65;;;;;;;6.97;100.00;98779.94;6198165;28;20054;-74
2023/11/12 02:35:42;;;;;;;1.85;1.55;;;;;;;6.96;100.00;98777.44;6197899;28;20058;-75
2023/11/12 02:38:43;;;;;;;1.58;1.48;;;;;;;6.99;100.00;98775.47;6199264;28;20046;-75
2023/11/12 02:41:44;;;;;;;3.83;1.38;;;;;;;7.03;100.00;98789.06;6197853;28;20058;-74
2023/11/12 02:44:46;;;;;;;2.20;1.60;;;;;;;6.92;100.00;98787.19;6199142;28;20086;-75
2023/11/12 02:47:47;;;;;;;3.58;1.60;;;;;;;6.84;100.00;98784.28;6198787;28;20050;-76
2023/11/12 02:50:48;;;;;;;1.77;1.38;;;;;;;6.86;100.00;98798.78;6198990;28;20050;-75
2023/11/12 02:53:49;;;;;;;2.22;1.27;;;;;;;7.15;100.00;98798.63;6198720;28;20058;-75
2023/11/12 02:56:50;;;;;;;2.97;1.60;;;;;;;6.91;100.00;98801.09;6197277;28;20401;-75
2023/11/12 02:59:51;;;;;;;1.88;1.33;;;;;;;6.91;100.00;98801.09;6197263;28;20100;-75
2023/11/12 03:03:00;;;;;;;1.67;1.45;;;;;;;6.98;100.00;98806.69;6197184;28;20201;-75
2023/11/12 03:06:01;;;;;;;1.55;1.23;;;;;;;6.89;100.00;98809.91;6198588;28;20092;-75
2023/11/12 03:09:04;;;;;;;1.35;1.20;;;;;;;6.82;100.00;98802.53;6199276;28;20058;-74
2023/11/12 03:12:05;;;;;;;0.80;0.80;;;;;;;6.82;100.00;98820.66;6201334;28;20054;-75
2023/11/12 03:15:07;;;;;;;1.80;1.10;;;;;;;6.82;100.00;98823.25;6198148;28;20062;-80
2023/11/12 03:18:09;;;;;;;0.93;0.93;;;;;;;6.94;100.00;98826.81;6198318;28;20546;-80
2023/11/12 03:21:10;;;;;;;3.00;1.73;;;;;;;6.93;100.00;98824.31;6198169;28;20500;-79
2023/11/12 03:24:10;;;;;;;1.25;0.80;;;;;;;6.88;100.00;98819.44;6197093;28;20054;-79
2023/11/12 03:27:11;;;;;;;1.10;1.00;;;;;;;6.96;100.00;98826.69;6197234;28;20057;-75
2023/11/12 03:30:12;;;;;;;0.88;0.80;;;;;;;6.92;100.00;98830.44;6196610;28;20050;-75
2023/11/12 03:33:13;;;;;;;1.20;1.10;;;;;;;6.86;100.00;98839.47;6198347;28;20104;-75
2023/11/12 03:36:15;;;;;;;1.35;0.98;;;;;;;6.87;100.00;98859.25;6196507;28;20054;-75
2023/11/12 03:39:17;;;;;;;2.78;0.82;;;;;;;6.81;100.00;98847.50;6197906;28;20590;-80
2023/11/12 03:42:18;;;;;;;1.25;1.00;;;;;;;6.93;100.00;98856.25;6197828;28;20145;-75
2023/11/12 03:45:19;;;;;;;1.17;1.08;;;;;;;6.72;100.00;98855.91;6196437;28;20062;-76
2023/11/12 03:48:21;;;;;;;0.95;0.88;;;;;;;6.84;100.00;98849.94;6196143;28;20108;-75
2023/11/12 03:51:22;;;;;;;1.00;0.68;;;;;;;6.59;100.00;98853.25;6197752;28;20059;-79
2023/11/12 03:54:23;;;;;;;1.50;1.02;;;;;;;6.57;100.00;98860.31;6196154;28;20426;-79
2023/11/12 03:57:24;;;;;;;0.82;0.65;;;;;;;6.88;100.00;98873.91;6196295;28;20420;-75
2023/11/12 04:00:24;;;;;;;1.10;0.88;;;;;;;6.72;100.00;98881.00;6196293;28;20054;-80
2023/11/12 04:03:27;;;;;;;0.80;0.70;;;;;;;6.64;100.00;98873.69;6197120;28;20050;-79
2023/11/12 04:06:28;;;;;;;0.82;0.82;;;;;;;6.66;100.00;98888.22;6197191;28;20053;-79
2023/11/12 04:09:30;;;;;;;1.40;1.17;;;;;;;6.52;100.00;98893.44;6195806;28;20086;-79
2023/11/12 04:12:32;;;;;;;1.05;0.95;;;;;;;6.83;100.00;98879.34;6196092;28;20046;-79
2023/11/12 04:15:33;;;;;;;0.93;0.80;;;;;;;6.71;100.00;98879.31;6195609;28;20413;-79
2023/11/12 04:18:36;;;;;;;1.40;1.08;;;;;;;6.54;100.00;98896.78;6195733;28;20065;-79
2023/11/12 04:21:36;;;;;;;;;;;;;;;6.59;100.00;98901.66;6196115;28;20501;-79
2023/11/12 04:24:37;;;;;;;0.60;0.60;;;;;;;6.52;100.00;98900.41;6227831;28;19921;-75
2023/11/12 04:27:38;;;;;;;1.33;1.20;;;;;;;6.65;100.00;98896.09;6196557;28;20057;-75
2023/11/12 04:30:39;;;;;;;2.63;2.08;;;;;;;6.81;100.00;98901.13;6195527;28;20058;-75
2023/11/12 04:33:40;;;;;;;3.50;1.98;;;;;;;6.76;100.00;98905.81;6195033;28;20086;-75
2023/11/12 04:36:44;;;;;;;1.67;1.48;;;;;;;6.81;100.00;98904.56;6196259;28;20470;-75
2023/11/12 04:39:45;;;;;;;1.23;1.13;;;;;;;6.72;100.00;98914.69;6195220;28;20057;-79
2023/11/12 04:42:46;;;;;;;2.55;1.55;;;;;;;6.50;100.00;98916.03;6196252;28;20050;-75
2023/11/12 04:45:47;;;;;;;1.60;1.23;;;;;;;6.68;100.00;98928.78;6196023;28;20105;-75
2023/11/12 04:48:48;;;;;;;1.38;1.20;;;;;;;6.55;100.00;98929.56;6194736;28;20050;-75
2023/11/12 04:51:53;;;;;;;1.50;1.40;;;;;;;6.77;100.00;98931.59;6196052;28;20512;-75
2023/11/12 04:54:54;;;;;;;1.38;1.25;;;;;;;6.92;100.00;98941.94;6195635;28;20232;-75
2023/11/12 04:57:55;;;;;;;3.53;1.80;;;;;;;6.85;100.00;98937.13;6195985;28;20085;-75
2023/11/12 05:00:58;;;;;;;1.45;1.35;;;;;;;6.58;100.00;98944.06;6194575;28;20489;-75
2023/11/12 05:03:59;;;;;;;1.17;1.00;;;;;;;6.59;100.00;98946.56;6195793;28;20062;-80
2023/11/12 05:07:02;;;;;;;1.67;1.08;;;;;;;6.56;100.00;98958.88;6194492;28;20105;-79
2023/11/12 05:10:05;;;;;;;1.65;1.20;;;;;;;6.49;100.00;98955.84;6194333;28;20057;-80
2023/11/12 05:13:05;;;;;;;1.50;1.13;;;;;;;6.78;100.00;98959.22;6195576;28;20409;-79
2023/11/12 05:16:06;;;;;;;4.43;1.63;;;;;;;6.64;100.00;98957.47;6194369;28;20060;-80
2023/11/12 05:19:07;;;;;;;2.33;1.20;;;;;;;6.60;100.00;98965.53;6193565;28;20054;-80
2023/11/12 05:22:08;;;;;;;2.80;1.05;;;;;;;6.80;100.00;98974.69;6190965;28;20054;-79
2023/11/12 05:25:11;;;;;;;1.70;1.60;;;;;;;6.69;100.00;98983.09;6190302;28;20102;-80
2023/11/12 05:28:12;;;;;;;3.50;1.40;;;;;;;6.71;100.00;98988.19;6192949;28;20599;-79
2023/11/12 05:31:13;;;;;;;1.77;1.25;;;;;;;6.90;100.00;98987.88;6194247;28;20058;-80
2023/11/12 05:34:14;;;;;;;1.33;1.20;;;;;;;6.79;100.00;98996.34;6194490;28;20050;-79
2023/11/12 05:37:16;;;;;;;2.85;1.75;;;;;;;6.98;100.00;98996.00;6187863;28;20038;-79
2023/11/12 05:40:17;;;;;;;1.83;1.53;;;;;;;6.89;100.00;98999.19;6177500;28;20043;-79
2023/11/12 05:43:18;;;;;;;1.23;1.05;;;;;;;6.69;100.00;99006.44;6191431;28;20161;-79
2023/11/12 05:46:19;;;;;;;1.15;1.05;;;;;;;6.68;100.00;99022.94;6200339;28;20054;-80
2023/11/12 05:49:20;;;;;;;6.13;1.63;;;;;;;6.73;100.00;99020.88;6200260;28;20050;-79
2023/11/12 05:52:21;;;;;;;2.63;1.70;;;;;;;6.57;100.00;99025.31;6199161;28;20050;-79
2023/11/12 05:55:22;;;;;;;3.80;1.75;;;;;;;6.60;100.00;99036.34;6199895;28;20057;-79
2023/11/12 05:58:23;;;;;;;2.88;2.00;;;;;;;6.71;100.00;99040.03;6200207;28;20105;-79
2023/11/12 06:01:24;;;;;;;4.57;1.77;;;;;;;6.66;100.00;99045.53;6200585;28;20054;-79
2023/11/12 06:04:25;;;;;;;1.67;1.40;;;;;;;6.42;100.00;99046.09;6198918;28;20051;-79
2023/11/12 06:07:27;;;;;;;4.25;2.25;;;;;;;6.60;100.00;99056.25;6198622;28;20061;-79
2023/11/12 06:10:29;;;;;;;3.17;2.13;;;;;;;6.62;100.00;99075.97;6199785;28;20054;-79
2023/11/12 06:13:29;;;;;;;2.95;2.08;;;;;;;6.74;100.00;99081.34;6180616;28;20050;-79
2023/11/12 06:16:30;;;;;;;2.15;1.63;;;;;;;6.71;100.00;99086.72;6165074;28;20050;-80
2023/11/12 06:19:31;;;;;;;4.00;2.95;;;;;;;6.71;100.00;99094.50;6177676;28;20038;-79
2023/11/12 06:22:32;;;;;;;1.75;1.60;;;;;;;6.67;100.00;99091.25;6161256;28;20102;-79
2023/11/12 06:25:33;;;;;;;2.78;2.15;;;;;;;6.69;100.00;99094.56;6168434;28;20505;-79
2023/11/12 06:28:34;;;;;;;2.55;2.25;;;;;;;6.80;100.00;99097.38;6172242;28;20134;-79
2023/11/12 06:31:38;;;;;;;3.15;2.47;;;;;;;7.01;100.00;99109.94;6165269;28;20135;-79
2023/11/12 06:34:40;;;;;;;5.25;2.20;;;;;;;6.88;100.00;99106.41;6163132;28;20050;-75
2023/11/12 06:37:40;;;;;;;3.15;2.05;;;;;;;6.81;100.00;99111.16;6160094;28;20057;-74
2023/11/12 06:40:41;;;;;;;4.82;2.33;;;;;;;6.91;100.00;99124.41;6156235;28;20490;-75
2023/11/12 06:43:42;;;;;;;3.20;2.55;;;;;;;6.93;100.00;99127.75;6162831;28;20414;-74
2023/11/12 06:46:46;;;;;;;7.15;2.45;;;;;;;6.88;100.00;99127.16;6167041;28;20090;-75
2023/11/12 06:49:47;;;;;;;3.88;2.47;;;;;;;6.78;100.00;99132.09;6164564;28;20082;-75
2023/11/12 06:52:48;;;;;;;3.33;2.40;;;;;;;6.89;100.00;99139.22;6190449;28;20117;-75
2023/11/12 06:55:49;;;;;;;4.55;2.90;;;;;;;6.81;100.00;99130.13;6161618;28;20638;-75
2023/11/12 06:58:50;;;;;;;4.65;2.22;;;;;;;6.79;100.00;99134.56;6155813;28;20047;-75
2023/11/12 07:01:51;;;;;;;4.40;2.70;;;;;;;6.85;100.00;99141.97;6160851;28;20161;-80
2023/11/12 07:04:52;;;;;;;3.63;1.95;;;;;;;6.81;100.00;99139.69;6171891;28;20224;-79
2023/11/12 07:07:53;;;;;;;8.13;2.60;;;;;;;6.93;100.00;99140.72;6171304;28;20054;-79
2023/11/12 07:10:54;;;;;;;6.30;2.20;;;;;;;6.89;100.00;99149.59;6165241;28;20051;-75
2023/11/12 07:13:55;;;;;;;2.85;2.28;;;;;;;6.89;100.00;99152.19;6168328;28;20050;-75
2023/11/12 07:16:58;;;;;;;3.67;2.47;;;;;;;6.78;100.00;99145.88;6155833;28;20071;-75
2023/11/12 07:19:59;;;;;;;4.13;2.72;;;;;;;6.79;100.00;99147.53;6161860;28;20051;-75
2023/11/12 07:23:00;;;;;;;2.67;2.17;;;;;;;6.73;100.00;99155.69;6172814;28;20054;-75
2023/11/12 07:26:01;;;;;;;4.55;3.10;;;;;;;6.89;100.00;99154.78;6173918;28;20143;-74
2023/11/12 07:29:02;;;;;;;6.10;2.70;;;;;;;6.69;100.00;99158.56;6172815;28;20136;-75
2023/11/12 07:32:04;;;;;;;4.60;2.60;;;;;;;6.75;100.00;99171.16;6180087;28;20178;-75
2023/11/12 07:35:08;;;;;;;4.13;2.92;;;;;;;6.62;100.00;99173.66;6172919;28;20098;-75
2023/11/12 07:38:09;;;;;;;3.40;2.20;;;;;;;6.64;100.00;99166.63;6196131;28;20137;-74
2023/11/12 07:41:10;;;;;;;3.63;2.33;;;;;;;6.76;100.00;99175.44;6197494;28;20513;-80
2023/11/12 07:44:11;;;;;;;4.75;2.38;;;;;;;6.79;100.00;99175.22;6196620;28;20061;-80
2023/11/12 07:47:12;;;;;;;5.13;3.40;;;;;;;6.98;100.00;99170.63;6197187;28;20294;-74
2023/11/12 07:50:13;;;;;;;4.28;2.50;;;;;;;6.96;100.00;99185.44;6196118;28;20046;-79
2023/11/12 07:53:13;;;;;;;4.05;2.33;;;;;;;7.04;100.00;99178.03;6196748;28;20061;-75
2023/11/12 07:56:17;;;;;;;3.88;2.40;;;;;;;7.23;100.00;99177.75;6168288;28;20065;-79
2023/11/12 07:59:18;;;;;;;7.78;2.55;;;;;;;7.30;100.00;99183.41;6156898;28;20441;-79
2023/11/12 08:02:21;;;;;;;2.45;2.22;;;;;;;7.45;100.00;99192.00;6164189;28;20054;-74
2023/11/12 08:05:24;;;;;;;2.65;2.08;;;;;;;7.61;100.00;99187.53;6162360;28;20051;-74
2023/11/12 08:08:26;;;;;;;8.68;2.78;;;;;;;7.61;100.00;99203.09;6159358;28;20090;-80
2023/11/12 08:11:27;;;;;;;4.72;1.88;;;;;;;7.58;100.00;99200.72;6158345;28;20415;-79
2023/11/12 08:14:27;;;;;;;5.35;2.08;;;;;;;7.38;100.00;99209.72;6171671;28;20066;-79
2023/11/12 08:17:31;;;;;;;5.57;2.83;;;;;;;7.45;100.00;99211.03;6171507;28;20553;-80
2023/11/12 08:20:34;;;;;;;7.13;3.60;;;;;;;7.69;100.00;99212.19;6177660;28;20512;-79
2023/11/12 08:23:34;;;;;;;7.22;4.22;;;;;;;7.58;100.00;99207.66;6195823;28;20050;-79
2023/11/12 08:26:38;;;;;;;3.95;2.60;;;;;;;7.49;100.00;99214.25;6195596;28;20054;-74
2023/11/12 08:29:39;;;;;;;4.57;3.20;;;;;;;7.59;100.00;99219.69;6194511;28;20047;-79
2023/11/12 08:32:43;;;;;;;5.35;3.00;;;;;;;7.63;100.00;99218.59;6196905;28;20358;-79
2023/11/12 08:35:44;;;;;;;3.83;2.22;;;;;;;7.79;100.00;99215.88;6196627;28;20120;-79
2023/11/12 08:38:45;;;;;;;2.72;2.13;;;;;;;7.86;100.00;99227.53;6195422;28;20058;-74
2023/11/12 08:41:49;;;;;;;4.78;2.42;;;;;;;7.67;100.00;99231.28;6196316;28;20093;-74
2023/11/12 08:44:50;;;;;;;7.03;2.45;;;;;;;7.71;100.00;99233.69;6189439;28;20051;-79
2023/11/12 08:47:51;;;;;;;6.25;2.28;;;;;;;7.93;100.00;99234.03;6175087;28;20054;-79
2023/11/12 08:50:52;;;;;;;3.40;2.30;;;;;;;8.01;100.00;99236.09;6161536;28;20058;-76
2023/11/12 08:53:53;;;;;;;4.82;2.45;;;;;;;8.18;100.00;99240.25;6187323;28;20051;-79
2023/11/12 08:56:54;;;;;;;4.75;2.90;;;;;;;7.97;100.00;99248.47;6171809;28;20058;-74
2023/11/12 08:59:57;;;;;;;3.75;2.50;;;;;;;7.97;100.00;99248.47;6171983;28;20062;-74
2023/11/12 09:02:58;;;;;;;6.78;3.35;;;;;;;7.96;100.00;99248.56;6171785;28;20433;-74
2023/11/12 09:05:59;;;;;;;3.33;2.70;;;;;;;7.88;100.00;99259.44;6172061;28;20055;-79
2023/11/12 09:09:04;;;;;;;3.17;2.28;;;;;;;7.94;100.00;99248.66;6171711;28;20446;-79
2023/11/12 09:12:07;;;;;;;3.40;2.22;;;;;;;8.12;100.00;99257.06;6186444;28;20061;-78
2023/11/12 09:15:09;;;;;;;3.30;2.47;;;;;;;8.02;100.00;99263.78;6195935;28;20089;-79
2023/11/12 09:18:13;;;;;;;3.95;2.50;;;;;;;7.95;100.00;99265.06;6195355;28;20108;-79
2023/11/12 09:21:14;;;;;;;4.57;2.65;;;;;;;8.06;100.00;99273.03;6194488;28;20046;-73
2023/11/12 09:24:18;;;;;;;5.22;2.85;;;;;;;8.11;100.00;99273.56;6194338;28;20182;-73
2023/11/12 09:27:20;;;;;;;2.78;2.45;;;;;;;8.28;100.00;99275.94;6195633;28;20042;-78
2023/11/12 09:30:21;;;;;;;7.68;2.90;;;;;;;8.36;100.00;99285.00;6195450;28;20492;-78
2023/11/12 09:33:22;;;;;;;5.63;2.97;;;;;;;8.18;100.00;99277.47;6194505;28;20046;-73
2023/11/12 09:36:24;;;;;;;4.07;2.50;;;;;;;8.32;100.00;99279.19;6193769;28;20054;-78
2023/11/12 09:39:27;;;;;;;3.00;2.45;;;;;;;8.37;100.00;99276.28;6193940;28;20508;-74
2023/11/12 09:42:31;;;;;;;4.28;2.20;;;;;;;8.14;100.00;99272.56;6194181;28;20058;-74
2023/11/12 09:45:39;;;;;;;4.20;2.70;;;;;;;8.39;100.00;99280.44;6193937;28;20512;-73
2023/11/12 09:48:42;;;;;;;5.28;2.47;;;;;;;8.28;100.00;99280.31;6195028;28;20137;-77
2023/11/12 09:51:44;;;;;;;5.00;2.60;;;;;;;8.29;100.00;99281.97;6195191;28;20489;-73
2023/11/12 09:54:47;;;;;;;4.63;2.83;;;;;;;8.36;100.00;99278.06;6194093;28;20050;-74
2023/11/12 09:57:51;;;;;;;3.90;2.10;;;;;;;8.30;100.00;99285.41;6195347;28;20129;-78
2023/11/12 10:00:56;;;;;;;2.28;1.98;;;;;;;8.46;100.00;99283.50;6182343;28;20134;-78
2023/11/12 10:03:57;;;;;;;3.35;2.40;;;;;;;8.44;100.00;99275.84;6156656;28;20081;-77
2023/11/12 10:06:59;;;;;;;3.20;2.35;;;;;;;8.44;100.00;99287.97;6167350;28;20536;-78
2023/11/12 10:10:21;;;;;;;4.80;2.50;;;;;;;8.72;99.27;99288.81;6158305;28;20098;-78
2023/11/12 10:13:35;;;;;;;2.08;1.65;;;;;;;8.44;99.02;99280.19;6173788;28;20046;-78
2023/11/12 10:16:37;;;;;;;3.20;2.00;;;;;;;8.50;100.00;99286.75;6174644;28;20556;-77
2023/11/12 10:19:38;;;;;;;3.63;2.70;;;;;;;8.65;99.72;99286.59;6171250;28;20185;-74
2023/11/12 10:22:40;;;;;;;4.28;2.50;;;;;;;8.61;98.71;99302.50;6194871;28;20050;-74
2023/11/12 10:25:43;;;;;;;3.55;2.00;;;;;;;8.47;98.00;99288.63;6198504;28;20046;-74
2023/11/12 10:28:44;;;;;;;2.65;2.15;;;;;;;8.70;99.33;99291.50;6198139;28;20056;-77
2023/11/12 10:31:45;;;;;;;2.95;1.80;;;;;;;8.49;98.98;99295.50;6199562;28;20061;-74
2023/11/12 10:34:49;;;;;;;4.32;2.00;;;;;;;8.53;99.04;99292.59;6185181;28;20078;-74
2023/11/12 10:38:00;;;;;;;1.85;1.70;;;;;;;8.62;97.76;99297.19;6157754;28;20046;-74
2023/11/12 10:41:03;;;;;;;2.35;1.55;;;;;;;8.48;98.17;99292.03;6197751;28;20050;-77
2023/11/12 10:44:06;;;;;;;3.35;2.03;;;;;;;8.52;96.24;99296.13;6197981;28;20057;-74
2023/11/12 10:47:10;;;;;;;4.45;2.25;;;;;;;8.52;97.05;99290.09;6197537;28;20566;-73
2023/11/12 10:50:12;;;;;;;2.15;1.83;;;;;;;8.61;97.21;99297.31;6197661;28;20054;-74
2023/11/12 10:53:14;;;;;;;2.67;1.98;;;;;;;8.64;97.09;99295.31;6198663;28;20532;-73
2023/11/12 10:56:16;;;;;;;5.53;2.22;;;;;;;8.75;96.97;99288.59;6197522;28;20144;-77
2023/11/12 10:59:18;;;;;;;2.20;2.00;;;;;;;8.93;96.49;99292.59;6198614;28;20105;-74
2023/11/12 11:02:22;;;;;;;5.78;2.55;;;;;;;8.86;95.16;99299.13;6180587;28;20137;-73
2023/11/12 11:05:24;;;;;;;3.10;2.15;;;;;;;8.91;95.16;99302.25;6174566;28;20142;-78
2023/11/12 11:08:26;;;;;;;;;;;;;;;8.97;94.95;99312.25;6193327;28;20413;-74
2023/11/12 11:11:27;;;;;;;4.43;2.33;;;;;;;8.86;95.21;99306.94;6197248;28;20008;-74
2023/11/12 11:14:28;;;;;;;3.28;2.17;;;;;;;9.09;95.40;99308.03;6196946;28;20050;-77
2023/11/12 11:17:38;;;;;;;4.78;2.28;;;;;;;9.01;94.12;99318.09;6190937;28;20071;-77
2023/11/12 11:21:22;;;;;;;2.88;1.90;;;;;;;9.01;94.17;99318.94;6158838;28;20050;-77
2023/11/12 11:24:46;;;;;;;3.22;1.90;;;;;;;9.14;93.37;99329.38;6158570;28;20417;-77
2023/11/12 11:27:47;;;;;;;3.63;1.73;;;;;;;9.14;94.50;99339.78;6161755;28;20059;-78
2023/11/12 11:31:11;;;;;;;4.20;1.92;;;;;;;9.10;93.70;99340.94;6164424;28;20099;-73
2023/11/12 11:34:18;;;;;;;2.15;1.90;;;;;;;8.95;94.44;99339.31;6168954;28;20433;-73
2023/11/12 11:37:19;;;;;;;5.70;2.38;;;;;;;8.81;92.98;99341.06;6189748;28;20050;-73
2023/11/12 11:40:30;;;;;;;3.17;2.47;;;;;;;8.88;94.20;99344.09;6204832;28;20052;-74
2023/11/12 11:43:31;;;;;;;2.40;2.10;;;;;;;8.99;93.66;99344.22;6196426;28;20062;-77
2023/11/12 11:46:52;;;;;;;2.35;1.88;;;;;;;9.06;93.73;99352.47;6195330;28;20053;-74
2023/11/12 11:49:56;;;;;;;3.70;2.45;;;;;;;8.99;93.51;99346.81;6192185;28;20140;-77
2023/11/12 11:52:58;;;;;;;5.03;2.22;;;;;;;9.15;93.98;99358.84;6191635;28;20058;-77
2023/11/12 11:56:10;;;;;;;2.50;2.13;;;;;;;9.36;93.66;99353.97;6197401;28;20477;-73
2023/11/12 11:59:12;;;;;;;4.47;2.17;;;;;;;9.29;93.70;99358.75;6192611;28;20065;-74
2023/11/12 12:02:17;;;;;;;5.90;3.30;;;;;;;9.31;92.79;99351.69;6197072;28;20050;-77
2023/11/12 12:05:30;;;;;;;5.05;3.03;;;;;;;9.23;93.19;99348.75;6179130;28;20137;-74
2023/11/12 12:08:33;;;;;;;3.70;1.90;;;;;;;9.27;92.05;99340.63;6194675;28;20057;-73
2023/11/12 12:11:38;;;;;;;4.93;2.10;;;;;;;9.38;91.99;99346.88;6182028;28;20162;-77
2023/11/12 12:14:39;;;;;;;4.63;2.40;;;;;;;9.31;91.59;99351.69;6180966;28;20421;-77
2023/11/12 12:17:41;;;;;;;2.95;1.90;;;;;;;9.47;90.17;99348.84;6193830;28;20085;-77
2023/11/12 12:20:44;;;;;;;3.63;2.25;;;;;;;9.57;90.84;99349.91;6178881;28;20122;-73
2023/11/12 12:23:46;;;;;;;5.18;3.08;;;;;;;9.42;90.04;99345.75;6194640;28;20054;-74
2023/11/12 12:26:47;;;;;;;2.83;2.57;;;;;;;9.30;89.99;99351.78;6195499;28;20054;-73
2023/11/12 12:29:50;;;;;;;3.35;2.00;;;;;;;9.31;89.42;99359.47;6195303;28;20052;-74
2023/11/12 12:32:51;;;;;;;;;;;;;;;9.44;90.17;99362.91;6196731;28;20052;-73
2023/11/12 12:35:59;;;;;;;3.13;1.80;;;;;;;9.46;89.89;99355.00;6195085;28;20016;-77
2023/11/12 12:39:06;;;;;;;2.47;1.98;;;;;;;9.47;90.39;99354.06;6188316;28;20047;-76
2023/11/12 12:42:09;;;;;;;2.75;1.98;;;;;;;9.57;91.67;99360.31;6184768;28;20090;-77
2023/11/12 12:45:15;;;;;;;5.38;2.33;;;;;;;9.46;91.76;99348.03;6196225;28;20057;-77
2023/11/12 12:48:22;;;;;;;4.55;2.72;;;;;;;9.47;91.96;99364.47;6194794;28;20544;-76
2023/11/12 12:51:23;;;;;;;4.57;2.28;;;;;;;9.37;90.43;99356.47;6196144;28;20057;-76
2023/11/12 12:54:25;;;;;;;2.75;1.92;;;;;;;9.52;90.21;99367.63;6195968;28;20050;-73
2023/11/12 12:57:26;;;;;;;4.25;1.92;;;;;;;9.45;90.58;99368.94;6194747;28;20488;-72
2023/11/12 13:00:28;;;;;;;3.47;2.30;;;;;;;9.75;89.83;99368.66;6195726;28;20046;-73
2023/11/12 13:03:31;;;;;;;3.05;2.13;;;;;;;9.67;89.80;99371.78;6195819;28;20400;-73
2023/11/12 13:06:33;;;;;;;3.05;1.98;;;;;;;9.60;89.43;99367.09;6194618;28;20059;-76
2023/11/12 13:09:34;;;;;;;1.92;1.35;;;;;;;9.67;89.42;99363.13;6195962;28;20054;-77
2023/11/12 13:12:35;;;;;;;4.22;2.15;;;;;;;9.70;88.50;99373.38;6195331;28;20062;-76
2023/11/12 13:15:38;;;;;;;6.00;3.60;;;;;;;9.75;87.32;99380.84;6194275;28;20058;-77
2023/11/12 13:18:40;;;;;;;5.80;1.98;;;;;;;9.88;86.73;99376.47;6195687;28;20094;-73
2023/11/12 13:21:46;;;;;;;;;;;;;;;9.84;87.45;99383.69;6195908;28;20398;-73
2023/11/12 13:24:48;;;;;;;7.40;3.80;;;;;;;9.97;87.69;99386.25;6195620;28;19945;-73
2023/11/12 13:27:49;;;;;;;16.00;5.68;;;;;;;10.06;86.91;99385.59;6175406;28;20088;-73
2023/11/12 13:30:50;;;;;;;9.95;5.28;;;;;;;10.02;88.08;99391.16;6162433;28;20043;-73
2023/11/12 13:33:51;;;;;;;8.38;3.92;;;;;;;9.92;87.88;99398.75;6159133;28;20050;-72
2023/11/12 13:36:52;;;;;;;14.85;4.95;;;;;;;10.01;87.70;99392.94;6159109;28;20069;-73
2023/11/12 13:39:52;;;;;;;10.85;4.30;;;;;;;9.81;87.63;99396.06;6163041;28;20094;-73
2023/11/12 13:42:54;;;;;;;6.18;3.20;;;;;;;9.89;87.64;99401.59;6194525;28;20078;-72
2023/11/12 13:45:55;;;;;;;7.38;3.33;;;;;;;9.82;87.83;99405.53;6161816;28;20062;-73
2023/11/12 13:48:58;;;;;;;5.90;4.40;;;;;;;9.94;87.65;99407.31;6160831;28;20051;-73
2023/11/12 13:52:00;;;;;;;18.25;10.40;;;;;;;9.95;86.87;99408.16;6170582;28;20498;-76
2023/11/12 13:55:02;;;;;;;19.95;10.25;;;;;;;10.02;86.95;99410.22;6167529;28;20050;-77
2023/11/12 13:58:05;;;;;;;11.10;6.35;;;;;;;9.87;85.75;99400.84;6184038;28;20493;-77
2023/11/12 14:01:06;;;;;;;8.40;3.25;;;;;;;10.12;86.13;99418.25;6199260;28;20073;-76
2023/11/12 14:04:09;;;;;;;4.18;2.10;;;;;;;10.03;86.09;99414.50;6195677;28;20382;-73
2023/11/12 14:07:10;;;;;;;4.07;2.15;;;;;;;10.04;87.73;99420.53;6197837;28;20054;-74
2023/11/12 14:10:14;;;;;;;4.18;2.92;;;;;;;10.06;87.23;99429.91;6199383;28;20412;-73
2023/11/12 14:13:14;;;;;;;7.13;2.47;;;;;;;9.98;86.02;99421.78;6158384;28;20410;-73
2023/11/12 14:16:15;;;;;;;4.20;1.98;;;;;;;10.02;86.56;99423.25;6155726;28;20055;-73
2023/11/12 14:19:16;;;;;;;6.38;3.08;;;;;;;10.12;86.15;99431.28;6176543;28;20053;-73
2023/11/12 14:22:17;;;;;;;3.85;2.00;;;;;;;9.96;84.48;99428.06;6196550;28;20089;-76